Time;durP1;ratioP1;P1;durP2;ratioP2;P2;SDS_P1;SDS_P2;PMS_P1;PMS_P2;Temp;Humidity;BMP_temperature;BMP_pressure;BME280_temperature;BME280_humidity;BME280_pressure;Samples;Min_cycle;Max_cycle;Signal;HPM_P1;HPM_P2
2023/08/11 00:02:18;;;;;;;6.38;3.22;;;17.10;99.90;;;;;;5041866;28;20045;-67
2023/08/11 00:04:43;;;;;;;8.52;3.60;;;17.10;99.90;;;;;;5041221;28;20052;-67
2023/08/11 00:07:09;;;;;;;5.47;2.95;;;17.00;99.90;;;;;;5043740;28;20032;-67
2023/08/11 00:09:35;;;;;;;8.50;3.25;;;17.00;99.90;;;;;;5042334;28;20037;-67
2023/08/11 00:12:01;;;;;;;8.57;3.95;;;17.00;99.90;;;;;;5043206;28;20152;-67
2023/08/11 00:14:26;;;;;;;5.35;2.95;;;16.90;99.90;;;;;;5041481;28;20163;-67
2023/08/11 00:16:52;;;;;;;6.97;3.10;;;16.90;99.90;;;;;;5044938;28;20421;-67
2023/08/11 00:19:18;;;;;;;5.57;3.20;;;16.90;99.90;;;;;;5043841;28;20044;-67
2023/08/11 00:21:43;;;;;;;5.10;3.10;;;16.90;99.90;;;;;;5045378;28;20041;-67
2023/08/11 00:24:11;;;;;;;6.55;3.10;;;16.80;99.90;;;;;;5039270;28;20435;-67
2023/08/11 00:26:36;;;;;;;6.95;2.83;;;16.80;99.90;;;;;;5039550;28;20519;-67
2023/08/11 00:29:02;;;;;;;7.43;3.67;;;16.80;99.90;;;;;;5041657;28;20037;-67
2023/08/11 00:31:28;;;;;;;8.93;4.45;;;16.70;99.90;;;;;;5042962;28;20044;-67
2023/08/11 00:33:55;;;;;;;8.13;4.63;;;16.70;99.90;;;;;;5054388;28;20041;-67
2023/08/11 00:36:21;;;;;;;7.55;4.22;;;16.70;99.90;;;;;;5041658;28;20060;-67
2023/08/11 00:38:46;;;;;;;10.02;4.25;;;16.70;99.90;;;;;;5042695;28;20726;-67
2023/08/11 00:41:14;;;;;;;7.10;4.10;;;16.60;99.90;;;;;;5042132;28;20398;-67
2023/08/11 00:43:39;;;;;;;7.22;4.00;;;16.60;99.90;;;;;;5041627;28;20045;-67
2023/08/11 00:46:10;;;;;;;7.90;4.18;;;16.60;99.90;;;;;;5043440;28;20083;-67
2023/08/11 00:48:40;;;;;;;7.90;3.92;;;16.50;99.90;;;;;;5052156;28;20063;-67
2023/08/11 00:51:07;;;;;;;8.70;4.07;;;16.50;99.90;;;;;;5051184;28;20126;-67
2023/08/11 00:53:33;;;;;;;8.93;4.10;;;16.50;99.90;;;;;;5043290;28;20033;-67
2023/08/11 00:56:02;;;;;;;7.30;3.95;;;16.50;99.90;;;;;;5047171;28;20486;-67
2023/08/11 00:58:29;;;;;;;7.55;4.25;;;16.50;99.90;;;;;;5047130;28;20140;-67
2023/08/11 01:00:57;;;;;;;12.88;4.03;;;16.40;99.90;;;;;;5047336;28;20123;-67
2023/08/11 01:03:23;;;;;;;8.65;4.25;;;16.40;99.90;;;;;;5077729;28;20045;-67
2023/08/11 01:06:03;;;;;;;8.27;5.10;;;16.40;99.90;;;;;;5042662;28;20048;-67
2023/08/11 01:08:41;;;;;;;8.38;4.90;;;16.40;99.90;;;;;;5046624;28;20137;-67
2023/08/11 01:11:17;;;;;;;11.90;5.20;;;16.40;99.90;;;;;;5045915;28;20563;-67
2023/08/11 01:13:52;;;;;;;10.50;5.10;;;16.40;99.90;;;;;;5046412;28;20060;-67
2023/08/11 01:16:19;;;;;;;12.07;5.20;;;16.30;99.90;;;;;;5048145;28;20498;-67
2023/08/11 01:18:45;;;;;;;10.43;4.13;;;16.30;99.90;;;;;;5046201;28;20033;-67
2023/08/11 01:21:14;;;;;;;10.45;4.65;;;16.30;99.90;;;;;;5042804;28;20498;-67
2023/08/11 01:23:40;;;;;;;10.18;5.45;;;16.20;99.90;;;;;;5044470;28;20040;-67
2023/08/11 01:26:07;;;;;;;8.90;4.93;;;16.20;99.90;;;;;;5046718;28;20106;-67
2023/08/11 01:28:35;;;;;;;10.15;5.40;;;16.20;99.90;;;;;;5056709;28;20054;-67
2023/08/11 01:31:01;;;;;;;12.13;5.22;;;16.20;99.90;;;;;;5046642;28;20044;-67
2023/08/11 01:33:26;;;;;;;10.23;5.43;;;16.10;99.90;;;;;;5044252;28;20036;-67
2023/08/11 01:35:52;;;;;;;8.82;5.20;;;16.10;99.90;;;;;;5045170;28;20054;-67
2023/08/11 01:38:18;;;;;;;10.73;5.10;;;16.10;99.90;;;;;;5076794;28;20043;-67
2023/08/11 01:40:44;;;;;;;9.20;5.18;;;16.10;99.90;;;;;;5046523;28;20052;-67
2023/08/11 01:43:12;;;;;;;9.30;4.90;;;16.10;99.90;;;;;;5046645;28;20032;-67
2023/08/11 01:45:39;;;;;;;9.32;4.57;;;16.10;99.90;;;;;;5046887;28;20060;-67
2023/08/11 01:48:05;;;;;;;10.68;5.20;;;16.10;99.90;;;;;;5045049;28;20040;-67
2023/08/11 01:50:32;;;;;;;9.45;5.03;;;16.10;99.90;;;;;;5042134;28;20518;-67
2023/08/11 01:52:58;;;;;;;8.43;4.68;;;16.10;99.90;;;;;;5041285;28;20037;-67
2023/08/11 01:55:24;;;;;;;8.18;4.40;;;16.10;99.90;;;;;;5046766;28;20086;-67
2023/08/11 01:57:51;;;;;;;10.93;5.82;;;16.10;99.90;;;;;;5044063;28;20628;-67
2023/08/11 02:00:16;;;;;;;9.88;5.80;;;16.10;99.90;;;;;;5043842;28;20033;-67
2023/08/11 02:02:45;;;;;;;8.45;5.05;;;16.10;99.90;;;;;;5045636;28;20043;-67
2023/08/11 02:05:12;;;;;;;9.63;5.07;;;16.10;99.90;;;;;;5077117;28;20102;-67
2023/08/11 02:07:41;;;;;;;8.98;5.28;;;16.10;99.90;;;;;;5044625;28;20086;-67
2023/08/11 02:10:08;;;;;;;8.38;4.70;;;16.10;99.90;;;;;;5045294;28;20079;-67
2023/08/11 02:12:34;;;;;;;12.13;5.00;;;16.10;99.90;;;;;;5042534;28;20033;-67
2023/08/11 02:15:00;;;;;;;8.13;4.85;;;16.10;99.90;;;;;;5047203;28;20048;-67
2023/08/11 02:17:26;;;;;;;9.27;4.65;;;16.10;99.90;;;;;;5046805;28;20045;-67
2023/08/11 02:19:53;;;;;;;7.53;4.30;;;16.10;99.90;;;;;;5051959;28;20029;-67
2023/08/11 02:22:19;;;;;;;7.85;4.55;;;16.10;99.90;;;;;;5045811;28;20495;-67
2023/08/11 02:24:44;;;;;;;9.27;4.78;;;16.10;99.90;;;;;;5043775;28;20094;-67
2023/08/11 02:27:10;;;;;;;8.25;5.00;;;16.10;99.90;;;;;;5046408;28;20053;-67
2023/08/11 02:29:37;;;;;;;10.02;4.95;;;16.10;99.90;;;;;;5043112;28;20316;-67
2023/08/11 02:32:05;;;;;;;8.98;4.07;;;16.10;99.90;;;;;;5045689;28;20037;-67
2023/08/11 02:34:32;;;;;;;8.35;4.97;;;16.10;99.90;;;;;;5043647;28;20076;-67
2023/08/11 02:36:57;;;;;;;7.97;4.38;;;16.10;99.90;;;;;;5045183;28;20041;-67
2023/08/11 02:39:23;;;;;;;9.43;5.10;;;16.10;99.90;;;;;;5076220;28;20096;-67
2023/08/11 02:41:49;;;;;;;7.65;4.72;;;16.10;99.90;;;;;;5044886;28;20765;-67
2023/08/11 02:44:15;;;;;;;8.13;4.20;;;16.10;99.90;;;;;;5044108;28;20120;-67
2023/08/11 02:46:41;;;;;;;8.55;4.57;;;16.10;99.90;;;;;;5045298;28;20120;-67
2023/08/11 02:49:07;;;;;;;11.05;4.45;;;16.10;99.90;;;;;;5041715;28;20513;-67
2023/08/11 02:51:33;;;;;;;8.38;4.70;;;16.10;99.90;;;;;;5040144;28;20040;-67
2023/08/11 02:53:59;;;;;;;10.93;4.63;;;16.10;99.90;;;;;;5076406;28;20506;-67
2023/08/11 02:56:25;;;;;;;8.65;4.45;;;16.10;99.90;;;;;;5043520;28;20033;-67
2023/08/11 02:58:52;;;;;;;7.72;4.10;;;16.00;99.90;;;;;;5043789;28;20076;-67
2023/08/11 03:01:18;;;;;;;7.50;4.25;;;16.10;99.90;;;;;;5045720;28;20119;-67
2023/08/11 03:03:43;;;;;;;6.22;3.72;;;16.00;99.90;;;;;;5041879;28;20151;-67
2023/08/11 03:06:10;;;;;;;8.60;4.57;;;16.10;99.90;;;;;;5048851;28;20029;-67
2023/08/11 03:08:37;;;;;;;7.93;4.43;;;16.00;99.90;;;;;;5043549;28;20112;-67
2023/08/11 03:11:03;;;;;;;9.02;4.43;;;16.00;99.90;;;;;;5044912;28;21431;-67
2023/08/11 03:13:29;;;;;;;6.72;3.70;;;16.00;99.90;;;;;;5043608;28;20037;-67
2023/08/11 03:15:55;;;;;;;8.18;4.32;;;16.00;99.90;;;;;;5044854;28;20025;-67
2023/08/11 03:18:21;;;;;;;10.15;4.68;;;16.00;99.90;;;;;;5044183;28;20041;-67
2023/08/11 03:20:47;;;;;;;7.50;4.00;;;16.00;99.90;;;;;;5043044;28;20045;-67
2023/08/11 03:23:13;;;;;;;6.63;3.72;;;16.00;99.90;;;;;;5042362;28;20434;-67
2023/08/11 03:25:39;;;;;;;7.97;4.15;;;16.00;99.90;;;;;;5044402;28;20041;-67
2023/08/11 03:28:05;;;;;;;9.75;4.32;;;16.00;99.90;;;;;;5043555;28;20525;-67
2023/08/11 03:30:31;;;;;;;6.82;3.60;;;16.00;99.90;;;;;;5045720;28;20037;-67
2023/08/11 03:32:57;;;;;;;7.53;3.83;;;15.90;99.90;;;;;;5046479;28;20033;-67
2023/08/11 03:35:23;;;;;;;9.48;4.47;;;15.90;99.90;;;;;;5078099;28;20087;-67
2023/08/11 03:37:48;;;;;;;6.90;4.20;;;15.90;99.90;;;;;;5047249;28;21362;-67
2023/08/11 03:40:16;;;;;;;9.18;4.28;;;15.90;99.90;;;;;;5043477;28;20033;-67
2023/08/11 03:42:43;;;;;;;6.68;3.65;;;15.90;99.90;;;;;;5047432;28;20041;-67
2023/08/11 03:45:12;;;;;;;8.25;4.07;;;15.90;99.90;;;;;;5048256;28;20072;-67
2023/08/11 03:47:39;;;;;;;8.70;4.65;;;15.90;99.90;;;;;;5047462;28;20049;-67
2023/08/11 03:50:06;;;;;;;9.15;4.10;;;15.90;99.90;;;;;;5044623;28;20483;-67
2023/08/11 03:52:33;;;;;;;8.45;4.18;;;15.80;99.90;;;;;;5076936;28;20037;-67
2023/08/11 03:54:58;;;;;;;7.47;4.20;;;15.80;99.90;;;;;;5045095;28;20040;-67
2023/08/11 03:57:25;;;;;;;6.88;4.03;;;15.80;99.90;;;;;;5048052;28;20071;-67
2023/08/11 03:59:51;;;;;;;8.63;4.32;;;15.80;99.90;;;;;;5042990;28;20041;-67
2023/08/11 04:02:17;;;;;;;6.95;4.03;;;15.80;99.90;;;;;;5046677;28;20075;-67
2023/08/11 04:04:43;;;;;;;7.43;4.07;;;15.80;99.90;;;;;;5045747;28;20057;-67
2023/08/11 04:07:09;;;;;;;7.03;3.63;;;15.80;99.90;;;;;;5047012;28;20529;-67
2023/08/11 04:09:34;;;;;;;6.68;3.78;;;15.70;99.90;;;;;;5046207;28;20028;-67
2023/08/11 04:12:00;;;;;;;7.20;4.50;;;15.80;99.90;;;;;;5048592;28;20499;-67
2023/08/11 04:14:25;;;;;;;7.47;4.15;;;15.80;99.90;;;;;;5019863;28;20051;-67
2023/08/11 04:16:51;;;;;;;8.15;3.78;;;15.70;99.90;;;;;;5048219;28;20040;-67
2023/08/11 04:19:17;;;;;;;6.10;4.00;;;15.80;99.90;;;;;;5045837;28;20857;-67
2023/08/11 04:21:42;;;;;;;10.57;4.30;;;15.70;99.90;;;;;;5046332;28;20108;-67
2023/08/11 04:24:08;;;;;;;8.55;3.97;;;15.70;99.90;;;;;;5046525;28;20041;-67
2023/08/11 04:26:34;;;;;;;12.85;4.75;;;15.80;99.90;;;;;;5042545;28;20045;-67
2023/08/11 04:29:01;;;;;;;6.82;3.72;;;15.70;99.90;;;;;;5047749;28;20064;-67
2023/08/11 04:31:27;;;;;;;5.75;3.47;;;15.70;99.90;;;;;;5044418;28;20078;-67
2023/08/11 04:33:53;;;;;;;6.95;3.70;;;15.70;99.90;;;;;;5047111;28;20525;-67
2023/08/11 04:36:19;;;;;;;9.15;4.00;;;15.70;99.90;;;;;;5045114;28;20119;-67
2023/08/11 04:38:45;;;;;;;9.80;3.55;;;15.70;99.90;;;;;;5045274;28;20038;-67
2023/08/11 04:41:10;;;;;;;4.93;3.08;;;15.70;99.90;;;;;;5047976;28;20450;-67
2023/08/11 04:43:36;;;;;;;7.80;3.85;;;15.70;99.90;;;;;;5048507;28;20498;-67
2023/08/11 04:46:03;;;;;;;7.38;3.97;;;15.70;99.90;;;;;;5045352;28;20447;-67
2023/08/11 04:48:29;;;;;;;6.28;3.38;;;15.70;99.90;;;;;;5047241;28;20091;-67
2023/08/11 04:50:56;;;;;;;6.68;3.83;;;15.70;99.90;;;;;;5046557;28;20087;-67
2023/08/11 04:53:22;;;;;;;10.10;3.90;;;15.70;99.90;;;;;;5046148;28;20102;-67
2023/08/11 04:55:48;;;;;;;6.38;3.50;;;15.80;99.90;;;;;;5043357;28;20441;-67
2023/08/11 04:58:14;;;;;;;7.40;3.47;;;15.70;99.90;;;;;;5046788;28;20028;-67
2023/08/11 05:00:40;;;;;;;8.88;3.53;;;15.70;99.90;;;;;;5046116;28;20523;-67
2023/08/11 05:03:05;;;;;;;10.13;3.35;;;15.70;99.90;;;;;;5047387;28;20036;-67
2023/08/11 05:05:31;;;;;;;8.63;3.63;;;15.70;99.90;;;;;;5039922;28;20068;-67
2023/08/11 05:07:57;;;;;;;6.32;3.28;;;15.70;99.90;;;;;;5043077;28;20787;-67
2023/08/11 05:10:23;;;;;;;7.55;3.33;;;15.70;99.90;;;;;;5047302;28;20033;-68
2023/08/11 05:12:49;;;;;;;6.95;2.80;;;15.70;99.90;;;;;;5045719;28;20037;-67
2023/08/11 05:15:14;;;;;;;5.88;3.30;;;15.70;99.90;;;;;;5034996;28;20419;-67
2023/08/11 05:17:40;;;;;;;10.95;3.60;;;15.80;99.90;;;;;;5043985;28;20124;-67
2023/08/11 05:20:07;;;;;;;5.47;3.08;;;15.70;99.90;;;;;;5044378;28;20410;-67
2023/08/11 05:22:34;;;;;;;8.73;3.55;;;15.80;99.90;;;;;;5045187;28;20052;-70
2023/08/11 05:25:03;;;;;;;5.78;3.45;;;15.80;99.90;;;;;;5078372;28;20045;-70
2023/08/11 05:27:28;;;;;;;6.53;3.22;;;15.80;99.90;;;;;;5034505;28;20065;-72
2023/08/11 05:29:54;;;;;;;7.13;3.28;;;15.80;99.90;;;;;;5042883;28;20045;-71
2023/08/11 05:32:19;;;;;;;7.10;3.00;;;15.90;99.90;;;;;;5048792;28;20037;-71
2023/08/11 05:34:45;;;;;;;5.93;3.10;;;15.90;99.90;;;;;;5049409;28;20497;-72
2023/08/11 05:37:12;;;;;;;5.80;3.22;;;15.80;99.90;;;;;;5041919;28;20037;-71
2023/08/11 05:39:38;;;;;;;5.93;3.03;;;15.90;99.90;;;;;;5049016;28;20052;-71
2023/08/11 05:42:08;;;;;;;6.82;3.13;;;15.90;99.90;;;;;;5047980;28;20394;-71
2023/08/11 05:44:34;;;;;;;4.47;2.80;;;16.00;99.90;;;;;;5052824;28;20091;-71
2023/08/11 05:47:00;;;;;;;6.00;2.95;;;16.00;99.90;;;;;;5061254;28;20072;-72
2023/08/11 05:49:25;;;;;;;9.05;2.90;;;16.10;99.90;;;;;;5045650;28;20044;-71
2023/08/11 05:51:51;;;;;;;5.38;2.65;;;16.10;99.90;;;;;;5044100;28;20040;-71
2023/08/11 05:54:16;;;;;;;4.82;2.70;;;16.10;99.90;;;;;;5047821;28;20415;-71
2023/08/11 05:56:42;;;;;;;4.75;2.50;;;16.20;99.90;;;;;;5045582;28;20547;-71
2023/08/11 05:59:08;;;;;;;6.93;3.30;;;16.20;99.90;;;;;;5049168;28;20036;-71
2023/08/11 06:01:34;;;;;;;6.65;2.60;;;16.20;99.90;;;;;;5054077;28;20036;-71
2023/08/11 06:04:00;;;;;;;5.80;2.75;;;16.20;99.90;;;;;;5047184;28;20075;-71
2023/08/11 06:06:26;;;;;;;8.35;3.22;;;16.20;99.90;;;;;;5047433;28;20072;-71
2023/08/11 06:08:54;;;;;;;5.97;2.90;;;16.30;99.90;;;;;;5046008;28;20124;-70
2023/08/11 06:11:20;;;;;;;4.07;2.40;;;16.30;99.90;;;;;;5046839;28;20120;-70
2023/08/11 06:13:46;;;;;;;8.98;3.05;;;16.30;99.90;;;;;;5048711;28;20123;-70
2023/08/11 06:16:11;;;;;;;4.18;2.35;;;16.40;99.90;;;;;;5049168;28;20044;-72
2023/08/11 06:18:37;;;;;;;6.13;2.72;;;16.40;99.90;;;;;;5046452;28;20067;-72
2023/08/11 06:21:04;;;;;;;5.65;2.75;;;16.40;99.90;;;;;;5049594;28;20049;-70
2023/08/11 06:23:31;;;;;;;4.53;2.60;;;16.40;99.90;;;;;;5044264;28;20044;-71
2023/08/11 06:25:56;;;;;;;5.68;2.47;;;16.50;99.90;;;;;;5080753;28;20106;-73
2023/08/11 06:28:22;;;;;;;7.03;2.70;;;16.50;99.90;;;;;;5045752;28;20053;-71
2023/08/11 06:30:48;;;;;;;4.43;2.63;;;16.60;99.90;;;;;;5049316;28;20060;-71
2023/08/11 06:33:13;;;;;;;4.07;2.35;;;17.00;99.90;;;;;;5048706;28;20479;-71
2023/08/11 06:35:39;;;;;;;4.50;2.47;;;17.90;99.90;;;;;;5034176;28;20107;-71
2023/08/11 06:38:05;;;;;;;3.80;2.40;;;18.70;99.90;;;;;;5032109;28;20044;-71
2023/08/11 06:40:30;;;;;;;4.50;2.42;;;19.50;99.90;;;;;;5031034;28;20617;-71
2023/08/11 06:42:56;;;;;;;3.53;1.63;;;19.60;99.90;;;;;;5032001;28;20120;-71
2023/08/11 06:45:21;;;;;;;6.15;2.30;;;19.50;99.90;;;;;;5031065;28;20040;-70
2023/08/11 06:47:47;;;;;;;4.05;2.10;;;19.40;99.90;;;;;;5032109;28;20133;-71
2023/08/11 06:50:13;;;;;;;4.13;2.25;;;19.20;99.90;;;;;;5030965;28;20376;-70
2023/08/11 06:52:38;;;;;;;5.10;2.38;;;19.10;99.90;;;;;;5032823;28;20120;-70
2023/08/11 06:55:05;;;;;;;3.63;1.98;;;18.90;99.90;;;;;;5032116;28;20440;-70
2023/08/11 06:57:30;;;;;;;4.28;2.20;;;18.90;99.90;;;;;;5031956;28;20077;-70
2023/08/11 06:59:56;;;;;;;5.97;2.20;;;18.80;99.90;;;;;;5047332;28;20077;-71
2023/08/11 07:02:22;;;;;;;4.82;2.30;;;18.70;99.90;;;;;;5030147;28;20037;-71
2023/08/11 07:04:48;;;;;;;6.40;2.22;;;18.70;99.90;;;;;;5032041;28;20100;-71
2023/08/11 07:07:13;;;;;;;4.25;2.28;;;18.70;99.90;;;;;;5047134;28;20473;-70
2023/08/11 07:09:39;;;;;;;3.50;2.20;;;18.60;99.90;;;;;;5031808;28;20096;-71
2023/08/11 07:12:05;;;;;;;3.10;2.10;;;18.60;99.90;;;;;;5031564;28;20037;-71
2023/08/11 07:14:31;;;;;;;5.28;2.30;;;18.60;99.90;;;;;;5030138;28;20442;-70
2023/08/11 07:16:57;;;;;;;3.63;2.00;;;18.60;99.90;;;;;;5031688;28;20044;-71
2023/08/11 07:19:23;;;;;;;4.70;1.90;;;18.60;99.90;;;;;;5047308;28;20121;-70
2023/08/11 07:21:48;;;;;;;3.92;1.80;;;18.60;99.90;;;;;;5047139;28;20491;-70
2023/08/11 07:24:14;;;;;;;3.72;1.98;;;18.60;99.90;;;;;;5046795;28;20558;-70
2023/08/11 07:26:41;;;;;;;3.65;1.90;;;18.60;99.90;;;;;;5031218;28;20084;-71
2023/08/11 07:29:07;;;;;;;3.55;1.95;;;18.60;99.90;;;;;;5031350;28;20046;-71
2023/08/11 07:31:32;;;;;;;3.70;1.95;;;18.60;99.90;;;;;;5046325;28;20068;-71
2023/08/11 07:33:58;;;;;;;3.38;1.80;;;18.70;99.90;;;;;;5031609;28;20041;-71
2023/08/11 07:36:23;;;;;;;4.03;2.20;;;18.60;99.90;;;;;;5030018;28;20068;-71
2023/08/11 07:38:49;;;;;;;4.47;1.83;;;18.70;99.90;;;;;;5046876;28;20430;-71
2023/08/11 07:41:15;;;;;;;4.90;1.75;;;18.70;99.90;;;;;;5029806;28;20041;-71
2023/08/11 07:43:40;;;;;;;2.95;1.83;;;18.80;99.90;;;;;;5030856;28;20045;-71
2023/08/11 07:46:06;;;;;;;3.97;1.90;;;18.80;99.90;;;;;;5029381;28;20045;-70
2023/08/11 07:48:31;;;;;;;5.00;1.90;;;18.80;99.90;;;;;;5029765;28;20033;-71
2023/08/11 07:50:57;;;;;;;5.05;1.80;;;18.90;99.90;;;;;;5031064;28;20045;-71
2023/08/11 07:53:23;;;;;;;3.08;1.80;;;18.90;99.90;;;;;;5031050;28;20091;-70
2023/08/11 07:55:49;;;;;;;5.00;2.20;;;18.90;99.90;;;;;;5030461;28;20139;-71
2023/08/11 07:58:15;;;;;;;4.68;2.10;;;19.00;99.90;;;;;;5030842;28;20033;-71
2023/08/11 08:00:40;;;;;;;4.00;2.17;;;19.00;99.90;;;;;;5030560;28;20041;-71
2023/08/11 08:03:06;;;;;;;4.00;2.10;;;19.00;99.90;;;;;;5029306;28;20045;-71
2023/08/11 08:05:32;;;;;;;3.58;1.98;;;19.10;99.90;;;;;;5031052;28;20045;-71
2023/08/11 08:07:57;;;;;;;5.10;2.38;;;19.10;99.90;;;;;;5031086;28;20399;-71
2023/08/11 08:10:25;;;;;;;3.17;1.90;;;19.20;99.90;;;;;;5031135;28;20487;-70
2023/08/11 08:12:51;;;;;;;3.08;2.00;;;19.20;99.90;;;;;;5030757;28;20041;-70
2023/08/11 08:15:17;;;;;;;3.13;1.73;;;19.30;99.90;;;;;;5029283;28;20041;-70
2023/08/11 08:17:43;;;;;;;3.13;1.70;;;19.30;99.90;;;;;;5029838;28;20041;-70
2023/08/11 08:20:10;;;;;;;3.90;1.73;;;19.30;99.90;;;;;;5030810;28;20113;-70
2023/08/11 08:22:38;;;;;;;3.58;1.60;;;19.40;99.90;;;;;;5045974;28;20045;-70
2023/08/11 08:25:08;;;;;;;2.70;1.60;;;19.40;99.90;;;;;;5046242;28;20045;-70
2023/08/11 08:27:34;;;;;;;4.32;2.22;;;19.40;99.90;;;;;;5029025;28;20064;-70
2023/08/11 08:30:00;;;;;;;5.57;2.13;;;19.50;99.90;;;;;;5030370;28;20049;-71
2023/08/11 08:32:26;;;;;;;3.00;1.70;;;19.50;99.90;;;;;;5045937;28;20086;-71
2023/08/11 08:34:52;;;;;;;3.28;1.48;;;19.50;99.90;;;;;;5030669;28;20037;-71
2023/08/11 08:37:19;;;;;;;3.10;1.70;;;19.60;99.90;;;;;;5030601;28;20556;-71
2023/08/11 08:39:46;;;;;;;4.00;2.00;;;19.60;99.90;;;;;;5030520;28;20515;-71
2023/08/11 08:42:13;;;;;;;4.28;2.10;;;19.70;99.90;;;;;;5030642;28;20041;-71
2023/08/11 08:44:39;;;;;;;5.18;2.28;;;19.70;99.90;;;;;;5030078;28;20040;-71
2023/08/11 08:47:05;;;;;;;3.40;2.03;;;19.80;99.90;;;;;;5029305;28;20041;-71
2023/08/11 08:49:31;;;;;;;4.63;2.20;;;19.80;99.90;;;;;;5029415;28;20051;-70
2023/08/11 08:51:57;;;;;;;4.13;1.80;;;19.90;99.90;;;;;;5030540;28;20050;-70
2023/08/11 08:54:23;;;;;;;2.90;1.75;;;19.90;99.90;;;;;;5029186;28;20117;-70
2023/08/11 08:56:52;;;;;;;3.83;2.13;;;19.90;99.90;;;;;;5030253;28;20104;-71
2023/08/11 08:59:17;;;;;;;3.20;2.00;;;20.00;99.90;;;;;;5028993;28;20046;-70
2023/08/11 09:01:44;;;;;;;6.72;1.90;;;20.00;99.90;;;;;;5029140;28;20117;-71
2023/08/11 09:04:10;;;;;;;3.92;1.73;;;20.10;99.90;;;;;;5030438;28;20116;-71
2023/08/11 09:06:36;;;;;;;3.33;1.88;;;20.10;99.90;;;;;;5031030;28;20087;-71
2023/08/11 09:09:04;;;;;;;4.32;1.88;;;20.20;99.90;;;;;;5034214;28;20546;-71
2023/08/11 09:11:30;;;;;;;3.42;1.50;;;20.30;99.90;;;;;;5032868;28;20051;-70
2023/08/11 09:14:06;;;;;;;2.58;1.63;;;20.30;99.90;;;;;;5034238;28;20112;-71
2023/08/11 09:16:37;;;;;;;3.60;1.70;;;20.40;99.90;;;;;;5033206;28;20137;-71
2023/08/11 09:19:10;;;;;;;3.22;1.58;;;20.40;99.90;;;;;;5034287;28;20042;-71
2023/08/11 09:21:36;;;;;;;3.20;1.75;;;20.50;99.90;;;;;;5016379;28;20046;-71
2023/08/11 09:24:02;;;;;;;4.50;1.63;;;20.50;99.90;;;;;;5032907;28;20045;-71
2023/08/11 09:26:28;;;;;;;2.50;1.48;;;20.50;99.90;;;;;;5034135;28;20037;-71
2023/08/11 09:28:54;;;;;;;3.28;1.65;;;20.50;99.90;;;;;;5049797;28;20471;-71
2023/08/11 09:31:25;;;;;;;3.25;1.40;;;20.60;99.90;;;;;;5032679;28;20055;-71
2023/08/11 09:33:52;;;;;;;3.35;1.85;;;20.60;99.90;;;;;;5032714;28;20080;-70
2023/08/11 09:36:19;;;;;;;3.42;1.90;;;20.70;99.90;;;;;;5032494;28;20068;-71
2023/08/11 09:38:46;;;;;;;4.55;1.70;;;20.70;99.90;;;;;;5049177;28;20045;-71
2023/08/11 09:41:16;;;;;;;6.13;1.50;;;20.70;99.90;;;;;;5034061;28;20479;-71
2023/08/11 09:43:48;;;;;;;3.00;1.58;;;20.70;99.90;;;;;;5033819;28;20038;-71
2023/08/11 09:46:14;;;;;;;2.97;1.45;;;20.80;99.90;;;;;;5033742;28;20037;-71
2023/08/11 09:48:40;;;;;;;4.03;1.80;;;20.80;99.90;;;;;;5033678;28;20041;-71
2023/08/11 09:51:12;;;;;;;3.15;1.70;;;20.80;99.90;;;;;;5032196;28;20056;-71
2023/08/11 09:53:43;;;;;;;3.00;1.63;;;20.90;99.90;;;;;;5033834;28;20037;-71
2023/08/11 09:56:12;;;;;;;3.92;1.65;;;20.80;99.90;;;;;;5032249;28;20104;-71
2023/08/11 09:58:38;;;;;;;5.38;1.60;;;20.90;99.90;;;;;;5033546;28;20037;-71
2023/08/11 10:01:08;;;;;;;2.72;1.40;;;20.90;99.90;;;;;;5032105;28;20129;-71
2023/08/11 10:03:41;;;;;;;3.78;1.67;;;21.00;99.90;;;;;;5048674;28;20502;-71
2023/08/11 10:06:10;;;;;;;3.00;1.67;;;21.00;99.90;;;;;;5048483;28;20384;-71
2023/08/11 10:08:36;;;;;;;4.35;1.30;;;21.00;99.90;;;;;;5033285;28;20076;-71
2023/08/11 10:11:03;;;;;;;3.58;1.42;;;21.10;99.90;;;;;;5033227;28;20045;-71
2023/08/11 10:13:29;;;;;;;2.90;1.65;;;21.10;99.90;;;;;;5031999;28;20046;-71
2023/08/11 10:15:56;;;;;;;5.43;1.80;;;21.20;99.90;;;;;;5033251;28;20395;-71
2023/08/11 10:18:21;;;;;;;2.60;1.70;;;21.20;99.90;;;;;;5030747;28;20069;-71
2023/08/11 10:20:50;;;;;;;4.13;1.90;;;21.20;99.90;;;;;;5033454;28;20529;-71
2023/08/11 10:23:17;;;;;;;3.17;1.60;;;21.30;99.90;;;;;;5033147;28;20402;-70
2023/08/11 10:25:44;;;;;;;3.40;1.85;;;21.30;99.90;;;;;;5032914;28;20111;-71
2023/08/11 10:28:12;;;;;;;5.25;1.33;;;21.40;99.90;;;;;;5031503;28;20057;-71
2023/08/11 10:30:38;;;;;;;2.72;1.40;;;21.50;99.90;;;;;;5015160;28;20038;-71
2023/08/11 10:33:06;;;;;;;2.90;1.40;;;21.50;99.90;;;;;;5032898;28;20417;-71
2023/08/11 10:35:51;;;;;;;3.67;1.60;;;21.50;99.90;;;;;;5014955;28;20065;-71
2023/08/11 10:38:25;;;;;;;3.63;1.90;;;21.50;99.90;;;;;;5033178;28;20063;-71
2023/08/11 10:41:15;;;;;;;3.95;1.73;;;21.50;99.90;;;;;;5031492;28;20068;-71
2023/08/11 10:43:47;;;;;;;2.85;1.60;;;21.60;99.90;;;;;;5030718;28;20049;-71
2023/08/11 10:46:31;;;;;;;3.03;1.33;;;21.60;99.90;;;;;;5032683;28;20122;-71
2023/08/11 10:49:21;;;;;;;3.78;1.52;;;21.70;99.90;;;;;;5031628;28;20072;-71
2023/08/11 10:51:47;;;;;;;3.05;1.40;;;21.70;99.90;;;;;;5031022;28;20672;-70
2023/08/11 10:54:23;;;;;;;4.13;1.45;;;21.80;99.90;;;;;;5031112;28;20053;-70
2023/08/11 10:56:51;;;;;;;2.03;1.13;;;21.80;99.90;;;;;;5032386;28;20403;-70
2023/08/11 10:59:31;;;;;;;5.10;1.75;;;21.90;99.90;;;;;;5031017;28;20513;-70
2023/08/11 11:01:59;;;;;;;2.70;1.30;;;21.90;99.90;;;;;;5032313;28;20052;-70
2023/08/11 11:04:32;;;;;;;3.60;1.50;;;22.00;99.90;;;;;;5032440;28;20076;-71
2023/08/11 11:07:00;;;;;;;2.47;1.35;;;22.00;99.90;;;;;;5032250;28;20052;-71
2023/08/11 11:09:29;;;;;;;3.30;1.33;;;22.00;99.90;;;;;;5030931;28;20048;-71
2023/08/11 11:11:56;;;;;;;2.85;1.10;;;22.00;99.90;;;;;;5032226;28;20163;-71
2023/08/11 11:14:22;;;;;;;4.53;1.80;;;22.00;99.90;;;;;;5030874;28;20073;-71
2023/08/11 11:16:48;;;;;;;2.88;1.45;;;22.10;99.90;;;;;;5031692;28;20045;-71
2023/08/11 11:19:13;;;;;;;2.30;1.30;;;22.10;99.90;;;;;;5031966;28;20116;-71
2023/08/11 11:21:42;;;;;;;4.15;1.48;;;22.10;99.90;;;;;;5047125;28;20119;-71
2023/08/11 11:24:09;;;;;;;4.35;1.50;;;22.20;99.90;;;;;;5031802;28;20060;-71
2023/08/11 11:26:35;;;;;;;3.25;1.20;;;22.20;99.90;;;;;;5030378;28;20045;-71
2023/08/11 11:29:03;;;;;;;2.88;1.45;;;22.30;99.90;;;;;;5047162;28;20044;-71
2023/08/11 11:31:31;;;;;;;3.88;1.63;;;22.40;99.90;;;;;;5030499;28;20058;-71
2023/08/11 11:33:57;;;;;;;3.42;1.35;;;22.40;99.90;;;;;;5032171;28;20112;-71
2023/08/11 11:36:23;;;;;;;4.32;1.50;;;22.50;99.90;;;;;;5046898;28;20416;-71
2023/08/11 11:38:49;;;;;;;3.15;1.02;;;22.50;99.90;;;;;;5047066;28;20033;-71
2023/08/11 11:41:17;;;;;;;2.33;1.48;;;22.50;99.90;;;;;;5030184;28;20048;-71
2023/08/11 11:43:47;;;;;;;2.92;1.20;;;22.60;99.90;;;;;;5046952;28;20478;-71
2023/08/11 11:46:14;;;;;;;2.42;1.48;;;22.60;99.90;;;;;;5030031;28;20083;-71
2023/08/11 11:48:44;;;;;;;3.35;1.35;;;22.60;99.90;;;;;;5031502;28;20037;-71
2023/08/11 11:51:15;;;;;;;2.80;1.25;;;22.70;99.90;;;;;;5031269;28;20482;-71
2023/08/11 11:53:42;;;;;;;7.13;1.40;;;22.70;99.90;;;;;;5030263;28;20979;-71
2023/08/11 11:56:08;;;;;;;3.85;1.25;;;22.70;99.90;;;;;;5031179;28;20087;-71
2023/08/11 11:58:36;;;;;;;4.07;1.40;;;22.80;99.90;;;;;;5030040;28;20045;-71
2023/08/11 12:01:13;;;;;;;2.97;1.40;;;22.80;99.90;;;;;;5030289;28;20083;-71
2023/08/11 12:03:39;;;;;;;2.60;1.20;;;22.90;99.90;;;;;;5046693;28;20056;-71
2023/08/11 12:06:06;;;;;;;4.05;1.70;;;23.00;99.90;;;;;;5031351;28;20029;-71
2023/08/11 12:08:33;;;;;;;3.63;1.42;;;23.00;99.90;;;;;;5029726;28;20529;-71
2023/08/11 12:11:00;;;;;;;2.38;1.50;;;23.00;99.90;;;;;;5046172;28;20121;-71
2023/08/11 12:13:26;;;;;;;3.42;1.10;;;23.00;99.90;;;;;;5029929;28;20037;-71
2023/08/11 12:15:52;;;;;;;2.20;1.08;;;23.10;99.90;;;;;;5029958;28;20033;-71
2023/08/11 12:18:19;;;;;;;2.67;1.38;;;23.10;99.90;;;;;;5029745;28;20589;-71
2023/08/11 12:20:45;;;;;;;3.50;1.40;;;23.10;99.90;;;;;;5030899;28;20049;-71
2023/08/11 12:23:10;;;;;;;4.60;1.35;;;23.10;99.90;;;;;;5029579;28;20094;-71
2023/08/11 12:25:36;;;;;;;3.95;1.50;;;23.10;99.90;;;;;;5030484;28;20081;-71
2023/08/11 12:28:02;;;;;;;2.30;1.20;;;23.10;99.90;;;;;;5029277;28;20110;-71
2023/08/11 12:30:28;;;;;;;3.33;1.33;;;23.20;99.90;;;;;;5046007;28;20521;-71
2023/08/11 12:32:54;;;;;;;2.33;1.20;;;23.20;99.90;;;;;;5030988;28;20034;-71
2023/08/11 12:35:20;;;;;;;3.20;1.35;;;23.20;99.90;;;;;;5030682;28;20120;-71
2023/08/11 12:37:46;;;;;;;2.40;1.33;;;23.30;99.90;;;;;;5029178;28;20069;-71
2023/08/11 12:40:12;;;;;;;4.35;1.80;;;23.30;99.90;;;;;;5030156;28;20044;-71
2023/08/11 12:42:38;;;;;;;2.72;1.17;;;23.20;99.90;;;;;;5030338;28;20503;-71
2023/08/11 12:45:04;;;;;;;2.90;1.58;;;23.30;99.90;;;;;;5045967;28;20069;-71